sensor_id;sensor_type;location;lat;lon;timestamp;pressure;altitude;pressure_sealevel;temperature;humidity
19208;BME280;9737;59.466;18.036;2023-07-02T00:00:21;98664.41;;;14.60;44.18
19208;BME280;9737;59.466;18.036;2023-07-02T00:02:49;98633.41;;;14.50;44.45
19208;BME280;9737;59.466;18.036;2023-07-02T00:05:17;98562.84;;;14.29;44.75
19208;BME280;9737;59.466;18.036;2023-07-02T00:07:45;98525.69;;;14.19;44.58
19208;BME280;9737;59.466;18.036;2023-07-02T00:10:15;98521.19;;;14.19;44.58
19208;BME280;9737;59.466;18.036;2023-07-02T00:12:42;98524.69;;;14.20;44.93
19208;BME280;9737;59.466;18.036;2023-07-02T00:15:11;98488.34;;;14.11;45.00
19208;BME280;9737;59.466;18.036;2023-07-02T00:17:39;98466.03;;;14.04;45.17
19208;BME280;9737;59.466;18.036;2023-07-02T00:20:08;98477.19;;;14.07;44.94
19208;BME280;9737;59.466;18.036;2023-07-02T00:22:41;98459.03;;;14.03;45.16
19208;BME280;9737;59.466;18.036;2023-07-02T00:25:12;98425.44;;;13.85;45.08
19208;BME280;9737;59.466;18.036;2023-07-02T00:27:42;98421.41;;;13.89;45.30
19208;BME280;9737;59.466;18.036;2023-07-02T00:30:10;98405.72;;;13.86;45.24
19208;BME280;9737;59.466;18.036;2023-07-02T00:32:38;98377.25;;;13.79;45.39
19208;BME280;9737;59.466;18.036;2023-07-02T00:35:06;98361.16;;;13.72;45.38
19208;BME280;9737;59.466;18.036;2023-07-02T00:37:34;98315.00;;;13.63;45.61
19208;BME280;9737;59.466;18.036;2023-07-02T00:40:02;98303.84;;;13.60;45.82
19208;BME280;9737;59.466;18.036;2023-07-02T00:42:30;98298.84;;;13.57;45.56
19208;BME280;9737;59.466;18.036;2023-07-02T00:44:59;98272.91;;;13.51;46.04
19208;BME280;9737;59.466;18.036;2023-07-02T00:47:30;98267.09;;;13.47;45.89
19208;BME280;9737;59.466;18.036;2023-07-02T00:49:58;98238.66;;;13.40;45.91
19208;BME280;9737;59.466;18.036;2023-07-02T00:52:28;98209.38;;;13.31;46.13
19208;BME280;9737;59.466;18.036;2023-07-02T00:54:56;98189.09;;;13.22;46.29
19208;BME280;9737;59.466;18.036;2023-07-02T00:57:24;98172.28;;;13.22;46.13
19208;BME280;9737;59.466;18.036;2023-07-02T00:59:56;98206.03;;;13.29;46.45
19208;BME280;9737;59.466;18.036;2023-07-02T01:02:25;98182.94;;;13.22;46.49
19208;BME280;9737;59.466;18.036;2023-07-02T01:04:57;98177.59;;;13.22;46.35
19208;BME280;9737;59.466;18.036;2023-07-02T01:07:28;98194.06;;;13.25;46.74
19208;BME280;9737;59.466;18.036;2023-07-02T01:09:56;98194.06;;;13.25;46.72
19208;BME280;9737;59.466;18.036;2023-07-02T01:12:24;98206.41;;;13.26;46.72
19208;BME280;9737;59.466;18.036;2023-07-02T01:14:54;98195.09;;;13.24;46.83
19208;BME280;9737;59.466;18.036;2023-07-02T01:17:24;98190.75;;;13.23;46.79
19208;BME280;9737;59.466;18.036;2023-07-02T01:19:55;98165.81;;;13.16;46.99
19208;BME280;9737;59.466;18.036;2023-07-02T01:22:27;98143.53;;;13.09;47.02
19208;BME280;9737;59.466;18.036;2023-07-02T01:24:56;98128.28;;;13.03;47.18
19208;BME280;9737;59.466;18.036;2023-07-02T01:27:24;98148.06;;;13.09;47.23
19208;BME280;9737;59.466;18.036;2023-07-02T01:29:55;98149.69;;;13.10;47.63
19208;BME280;9737;59.466;18.036;2023-07-02T01:32:23;98144.56;;;13.08;47.42
19208;BME280;9737;59.466;18.036;2023-07-02T01:34:51;98143.72;;;13.08;47.54
19208;BME280;9737;59.466;18.036;2023-07-02T01:37:21;98147.22;;;13.08;47.72
19208;BME280;9737;59.466;18.036;2023-07-02T01:39:49;98166.16;;;13.13;47.97
19208;BME280;9737;59.466;18.036;2023-07-02T01:42:18;98183.66;;;13.16;47.92
19208;BME280;9737;59.466;18.036;2023-07-02T01:44:47;98179.97;;;13.17;47.89
19208;BME280;9737;59.466;18.036;2023-07-02T01:47:16;98209.00;;;13.20;48.18
19208;BME280;9737;59.466;18.036;2023-07-02T01:49:46;98205.13;;;13.22;48.33
19208;BME280;9737;59.466;18.036;2023-07-02T01:52:14;98224.44;;;13.24;48.34
19208;BME280;9737;59.466;18.036;2023-07-02T01:54:45;98245.09;;;13.30;48.57
19208;BME280;9737;59.466;18.036;2023-07-02T01:57:13;98277.03;;;13.39;48.46
19208;BME280;9737;59.466;18.036;2023-07-02T01:59:40;98302.00;;;13.46;48.83
19208;BME280;9737;59.466;18.036;2023-07-02T02:02:09;98333.28;;;13.52;48.88
19208;BME280;9737;59.466;18.036;2023-07-02T02:04:37;98349.78;;;13.55;48.90
19208;BME280;9737;59.466;18.036;2023-07-02T02:07:05;98372.28;;;13.61;48.91
19208;BME280;9737;59.466;18.036;2023-07-02T02:09:32;98385.28;;;13.64;49.31
19208;BME280;9737;59.466;18.036;2023-07-02T02:12:02;98406.91;;;13.69;49.17
19208;BME280;9737;59.466;18.036;2023-07-02T02:14:30;98415.56;;;13.71;49.57
19208;BME280;9737;59.466;18.036;2023-07-02T02:16:58;98430.41;;;13.74;49.27
19208;BME280;9737;59.466;18.036;2023-07-02T02:19:26;98435.75;;;13.74;49.77
19208;BME280;9737;59.466;18.036;2023-07-02T02:21:53;98441.91;;;13.74;49.71
19208;BME280;9737;59.466;18.036;2023-07-02T02:24:21;98446.25;;;13.75;49.61
19208;BME280;9737;59.466;18.036;2023-07-02T02:26:49;98466.91;;;13.81;50.15
19208;BME280;9737;59.466;18.036;2023-07-02T02:29:18;98498.22;;;13.87;50.25
19208;BME280;9737;59.466;18.036;2023-07-02T02:31:47;98496.38;;;13.73;50.37
19208;BME280;9737;59.466;18.036;2023-07-02T02:34:15;98554.41;;;14.02;50.09
19208;BME280;9737;59.466;18.036;2023-07-02T02:36:43;98579.56;;;14.08;50.38
19208;BME280;9737;59.466;18.036;2023-07-02T02:39:11;98615.94;;;14.17;50.34
19208;BME280;9737;59.466;18.036;2023-07-02T02:41:39;98634.94;;;14.22;50.35
19208;BME280;9737;59.466;18.036;2023-07-02T02:44:06;98678.47;;;14.31;50.94
19208;BME280;9737;59.466;18.036;2023-07-02T02:46:36;98704.31;;;14.38;50.80
19208;BME280;9737;59.466;18.036;2023-07-02T02:49:03;98734.06;;;14.43;51.25
19208;BME280;9737;59.466;18.036;2023-07-02T02:51:31;98765.13;;;14.52;50.94
19208;BME280;9737;59.466;18.036;2023-07-02T02:53:59;98772.13;;;14.53;51.00
19208;BME280;9737;59.466;18.036;2023-07-02T02:56:27;98781.63;;;14.56;51.39
19208;BME280;9737;59.466;18.036;2023-07-02T02:58:55;98783.66;;;14.54;51.69
19208;BME280;9737;59.466;18.036;2023-07-02T03:01:22;98805.53;;;14.57;51.89
19208;BME280;9737;59.466;18.036;2023-07-02T03:03:52;98811.53;;;14.60;51.65
19208;BME280;9737;59.466;18.036;2023-07-02T03:06:20;98812.38;;;14.60;51.98
19208;BME280;9737;59.466;18.036;2023-07-02T03:08:47;98829.91;;;14.63;51.76
19208;BME280;9737;59.466;18.036;2023-07-02T03:11:15;98853.44;;;14.67;51.78
19208;BME280;9737;59.466;18.036;2023-07-02T03:13:43;98872.47;;;14.72;51.88
19208;BME280;9737;59.466;18.036;2023-07-02T03:16:11;98896.69;;;14.79;52.28
19208;BME280;9737;59.466;18.036;2023-07-02T03:18:39;98919.25;;;14.84;52.16
19208;BME280;9737;59.466;18.036;2023-07-02T03:21:08;98947.97;;;14.91;52.72
19208;BME280;9737;59.466;18.036;2023-07-02T03:23:36;98954.16;;;14.91;52.82
19208;BME280;9737;59.466;18.036;2023-07-02T03:26:04;99009.66;;;15.05;52.56
19208;BME280;9737;59.466;18.036;2023-07-02T03:28:32;99078.34;;;15.21;53.00
19208;BME280;9737;59.466;18.036;2023-07-02T03:31:01;99120.13;;;15.30;52.78
19208;BME280;9737;59.466;18.036;2023-07-02T03:33:29;99217.31;;;15.55;52.99
19208;BME280;9737;59.466;18.036;2023-07-02T03:35:57;99228.00;;;15.55;53.15
19208;BME280;9737;59.466;18.036;2023-07-02T03:38:27;99243.78;;;15.58;53.52
19208;BME280;9737;59.466;18.036;2023-07-02T03:40:54;99261.22;;;15.62;53.71
19208;BME280;9737;59.466;18.036;2023-07-02T03:43:22;99286.47;;;15.68;53.69
19208;BME280;9737;59.466;18.036;2023-07-02T03:45:52;99308.06;;;15.74;53.65
19208;BME280;9737;59.466;18.036;2023-07-02T03:48:19;99350.06;;;15.82;53.81
19208;BME280;9737;59.466;18.036;2023-07-02T03:50:47;99365.63;;;15.87;53.77
19208;BME280;9737;59.466;18.036;2023-07-02T03:53:15;99371.84;;;15.87;54.12
19208;BME280;9737;59.466;18.036;2023-07-02T03:55:45;99387.44;;;15.92;54.01
19208;BME280;9737;59.466;18.036;2023-07-02T03:58:13;99404.19;;;15.94;54.48
19208;BME280;9737;59.466;18.036;2023-07-02T04:00:40;99431.97;;;16.01;54.36
19208;BME280;9737;59.466;18.036;2023-07-02T04:03:10;99419.91;;;15.97;54.55
19208;BME280;9737;59.466;18.036;2023-07-02T04:05:38;99425.28;;;15.97;54.45
19208;BME280;9737;59.466;18.036;2023-07-02T04:08:06;99441.03;;;16.00;54.83
19208;BME280;9737;59.466;18.036;2023-07-02T04:10:34;99441.88;;;16.00;54.72
19208;BME280;9737;59.466;18.036;2023-07-02T04:13:03;99470.50;;;16.08;54.90
19208;BME280;9737;59.466;18.036;2023-07-02T04:15:31;99473.34;;;16.06;55.06
19208;BME280;9737;59.466;18.036;2023-07-02T04:17:59;99520.13;;;16.20;55.22
19208;BME280;9737;59.466;18.036;2023-07-02T04:20:27;99543.91;;;16.23;55.19
19208;BME280;9737;59.466;18.036;2023-07-02T04:22:55;99593.50;;;16.35;55.45
19208;BME280;9737;59.466;18.036;2023-07-02T04:25:23;99625.19;;;16.40;55.54
19208;BME280;9737;59.466;18.036;2023-07-02T04:28:12;99645.16;;;16.46;55.72
19208;BME280;9737;59.466;18.036;2023-07-02T04:30:40;99689.59;;;16.56;55.76
19208;BME280;9737;59.466;18.036;2023-07-02T04:33:08;99698.84;;;16.54;55.58
19208;BME280;9737;59.466;18.036;2023-07-02T04:35:40;99749.00;;;16.69;55.98
19208;BME280;9737;59.466;18.036;2023-07-02T04:38:08;99746.81;;;16.65;55.98
19208;BME280;9737;59.466;18.036;2023-07-02T04:40:36;99815.31;;;16.85;56.00
19208;BME280;9737;59.466;18.036;2023-07-02T04:43:04;99859.44;;;16.91;56.22
19208;BME280;9737;59.466;18.036;2023-07-02T04:45:33;99885.31;;;17.00;56.25
19208;BME280;9737;59.466;18.036;2023-07-02T04:48:03;99916.72;;;17.08;56.43
19208;BME280;9737;59.466;18.036;2023-07-02T04:50:31;99950.81;;;17.15;56.51
19208;BME280;9737;59.466;18.036;2023-07-02T04:52:59;99970.97;;;17.19;56.60
19208;BME280;9737;59.466;18.036;2023-07-02T04:55:27;99995.47;;;17.24;56.68
19208;BME280;9737;59.466;18.036;2023-07-02T04:57:55;100025.22;;;17.31;56.68
19208;BME280;9737;59.466;18.036;2023-07-02T05:00:23;100055.81;;;17.38;56.85
19208;BME280;9737;59.466;18.036;2023-07-02T05:02:52;100098.84;;;17.38;57.06
19208;BME280;9737;59.466;18.036;2023-07-02T05:05:20;100165.22;;;17.62;56.98
19208;BME280;9737;59.466;18.036;2023-07-02T05:07:47;100209.84;;;17.73;57.13
19208;BME280;9737;59.466;18.036;2023-07-02T05:10:15;100250.22;;;17.81;57.28
19208;BME280;9737;59.466;18.036;2023-07-02T05:12:43;100276.44;;;17.87;57.43
19208;BME280;9737;59.466;18.036;2023-07-02T05:15:11;100347.31;;;18.04;57.52
19208;BME280;9737;59.466;18.036;2023-07-02T05:17:39;100347.31;;;18.04;57.58
19208;BME280;9737;59.466;18.036;2023-07-02T05:20:10;100413.13;;;18.17;57.65
19208;BME280;9737;59.466;18.036;2023-07-02T05:22:37;100498.00;;;18.38;57.52
19208;BME280;9737;59.466;18.036;2023-07-02T05:25:06;100581.25;;;18.57;57.84
19208;BME280;9737;59.466;18.036;2023-07-02T05:27:34;100625.09;;;18.67;57.97
19208;BME280;9737;59.466;18.036;2023-07-02T05:30:02;100674.31;;;18.77;58.00
19208;BME280;9737;59.466;18.036;2023-07-02T05:32:30;100748.03;;;18.94;58.13
19208;BME280;9737;59.466;18.036;2023-07-02T05:34:57;100787.50;;;19.03;58.28
19208;BME280;9737;59.466;18.036;2023-07-02T05:37:27;100749.88;;;18.94;58.39
19208;BME280;9737;59.466;18.036;2023-07-02T05:39:54;100769.09;;;18.99;58.46
19208;BME280;9737;59.466;18.036;2023-07-02T05:42:22;100759.66;;;18.95;58.39
19208;BME280;9737;59.466;18.036;2023-07-02T05:44:50;100770.09;;;18.98;58.59
19208;BME280;9737;59.466;18.036;2023-07-02T05:47:18;100787.66;;;19.02;58.34
19208;BME280;9737;59.466;18.036;2023-07-02T05:49:46;100791.34;;;19.01;58.55
19208;BME280;9737;59.466;18.036;2023-07-02T05:52:13;100823.78;;;19.09;58.83
19208;BME280;9737;59.466;18.036;2023-07-02T05:54:42;100874.72;;;19.20;58.68
19208;BME280;9737;59.466;18.036;2023-07-02T05:57:10;100945.78;;;19.37;58.73
19208;BME280;9737;59.466;18.036;2023-07-02T05:59:38;100903.75;;;19.26;58.84
19208;BME280;9737;59.466;18.036;2023-07-02T06:02:06;100881.97;;;19.19;58.95
19208;BME280;9737;59.466;18.036;2023-07-02T06:04:34;100916.91;;;19.29;58.81
19208;BME280;9737;59.466;18.036;2023-07-02T06:07:02;100958.28;;;19.38;58.96
19208;BME280;9737;59.466;18.036;2023-07-02T06:09:30;100975.00;;;19.41;59.05
19208;BME280;9737;59.466;18.036;2023-07-02T06:12:00;100979.41;;;19.42;58.98
19208;BME280;9737;59.466;18.036;2023-07-02T06:14:27;101004.03;;;19.47;59.25
19208;BME280;9737;59.466;18.036;2023-07-02T06:16:55;101006.75;;;19.47;59.31
19208;BME280;9737;59.466;18.036;2023-07-02T06:19:24;100990.88;;;19.44;59.15
19208;BME280;9737;59.466;18.036;2023-07-02T06:21:52;101063.16;;;19.59;59.12
19208;BME280;9737;59.466;18.036;2023-07-02T06:24:19;101121.31;;;19.71;59.22
19208;BME280;9737;59.466;18.036;2023-07-02T06:26:47;101145.66;;;19.79;59.31
19208;BME280;9737;59.466;18.036;2023-07-02T06:29:16;101167.63;;;19.84;59.30
19208;BME280;9737;59.466;18.036;2023-07-02T06:31:44;101180.81;;;19.87;59.52
19208;BME280;9737;59.466;18.036;2023-07-02T06:34:12;101186.22;;;19.87;59.51
19208;BME280;9737;59.466;18.036;2023-07-02T06:36:41;101156.47;;;19.79;59.52
19208;BME280;9737;59.466;18.036;2023-07-02T06:39:09;101120.63;;;19.69;59.42
19208;BME280;9737;59.466;18.036;2023-07-02T06:41:36;100993.88;;;19.41;59.47
19208;BME280;9737;59.466;18.036;2023-07-02T06:44:04;100914.16;;;19.21;59.51
19208;BME280;9737;59.466;18.036;2023-07-02T06:46:34;100911.47;;;19.21;59.56
19208;BME280;9737;59.466;18.036;2023-07-02T06:49:02;100927.34;;;19.24;59.44
19208;BME280;9737;59.466;18.036;2023-07-02T06:51:30;100944.56;;;19.31;59.55
19208;BME280;9737;59.466;18.036;2023-07-02T06:54:00;100971.22;;;19.34;59.57
19208;BME280;9737;59.466;18.036;2023-07-02T06:56:27;100955.50;;;19.30;59.59
19208;BME280;9737;59.466;18.036;2023-07-02T06:58:55;100959.75;;;19.32;59.60
19208;BME280;9737;59.466;18.036;2023-07-02T07:01:23;100985.09;;;19.39;59.60
19208;BME280;9737;59.466;18.036;2023-07-02T07:03:52;100958.91;;;19.32;59.74
19208;BME280;9737;59.466;18.036;2023-07-02T07:06:20;100948.59;;;19.27;59.71
19208;BME280;9737;59.466;18.036;2023-07-02T07:08:48;100930.72;;;19.26;59.56
19208;BME280;9737;59.466;18.036;2023-07-02T07:11:17;100907.41;;;19.17;59.72
19208;BME280;9737;59.466;18.036;2023-07-02T07:13:45;100890.69;;;19.13;59.71
19208;BME280;9737;59.466;18.036;2023-07-02T07:16:13;100843.25;;;19.03;59.75
19208;BME280;9737;59.466;18.036;2023-07-02T07:18:41;100849.16;;;19.06;59.70
19208;BME280;9737;59.466;18.036;2023-07-02T07:21:12;100833.47;;;19.02;59.67
19208;BME280;9737;59.466;18.036;2023-07-02T07:23:40;100838.88;;;19.02;59.63
19208;BME280;9737;59.466;18.036;2023-07-02T07:26:08;100873.16;;;19.09;59.60
19208;BME280;9737;59.466;18.036;2023-07-02T07:28:36;100859.94;;;19.06;59.78
19208;BME280;9737;59.466;18.036;2023-07-02T07:31:04;100860.78;;;19.07;59.75
19208;BME280;9737;59.466;18.036;2023-07-02T07:33:32;100880.22;;;19.10;59.64
19208;BME280;9737;59.466;18.036;2023-07-02T07:35:59;100905.72;;;19.16;59.82
19208;BME280;9737;59.466;18.036;2023-07-02T07:38:28;100944.19;;;19.26;59.75
19208;BME280;9737;59.466;18.036;2023-07-02T07:40:56;100974.06;;;19.33;59.93
19208;BME280;9737;59.466;18.036;2023-07-02T07:43:24;100954.81;;;19.28;59.95
19208;BME280;9737;59.466;18.036;2023-07-02T07:45:52;100982.69;;;19.36;59.96
19208;BME280;9737;59.466;18.036;2023-07-02T07:48:21;100950.44;;;19.27;60.02
19208;BME280;9737;59.466;18.036;2023-07-02T07:50:49;100960.06;;;19.29;60.00
19208;BME280;9737;59.466;18.036;2023-07-02T07:53:17;100974.22;;;19.31;59.90
19208;BME280;9737;59.466;18.036;2023-07-02T07:55:46;100993.47;;;19.36;59.85
19208;BME280;9737;59.466;18.036;2023-07-02T07:58:14;100983.84;;;19.34;59.88
19208;BME280;9737;59.466;18.036;2023-07-02T08:00:42;100947.91;;;19.25;59.87
19208;BME280;9737;59.466;18.036;2023-07-02T08:03:10;100923.41;;;19.18;59.83
19208;BME280;9737;59.466;18.036;2023-07-02T08:05:37;100907.72;;;19.14;60.09
19208;BME280;9737;59.466;18.036;2023-07-02T08:08:05;100898.78;;;19.13;60.05
19208;BME280;9737;59.466;18.036;2023-07-02T08:10:34;100823.31;;;18.96;59.90
19208;BME280;9737;59.466;18.036;2023-07-02T08:13:04;100716.38;;;18.70;60.04
19208;BME280;9737;59.466;18.036;2023-07-02T08:15:32;100621.91;;;18.46;60.03
19208;BME280;9737;59.466;18.036;2023-07-02T08:18:00;100536.84;;;18.27;59.98
19208;BME280;9737;59.466;18.036;2023-07-02T08:20:27;100514.22;;;18.20;59.98
19208;BME280;9737;59.466;18.036;2023-07-02T08:22:55;100464.22;;;18.09;59.92
19208;BME280;9737;59.466;18.036;2023-07-02T08:25:23;100372.63;;;17.85;59.88
19208;BME280;9737;59.466;18.036;2023-07-02T08:27:53;100313.75;;;17.74;60.01
19208;BME280;9737;59.466;18.036;2023-07-02T08:30:22;100277.88;;;17.65;59.93
19208;BME280;9737;59.466;18.036;2023-07-02T08:32:52;100195.78;;;17.45;59.85
19208;BME280;9737;59.466;18.036;2023-07-02T08:35:21;100143.31;;;17.32;59.95
19208;BME280;9737;59.466;18.036;2023-07-02T08:37:48;100126.84;;;17.27;60.06
19208;BME280;9737;59.466;18.036;2023-07-02T08:40:17;100109.19;;;17.25;60.01
19208;BME280;9737;59.466;18.036;2023-07-02T08:42:46;100084.81;;;17.18;60.02
19208;BME280;9737;59.466;18.036;2023-07-02T08:45:14;100048.19;;;17.09;59.98
19208;BME280;9737;59.466;18.036;2023-07-02T08:47:45;100019.28;;;17.03;60.00
19208;BME280;9737;59.466;18.036;2023-07-02T08:50:13;100035.22;;;17.04;60.09
19208;BME280;9737;59.466;18.036;2023-07-02T08:52:41;100000.97;;;16.98;60.16
19208;BME280;9737;59.466;18.036;2023-07-02T08:55:12;100077.09;;;17.15;60.17
19208;BME280;9737;59.466;18.036;2023-07-02T08:57:40;100043.00;;;17.08;60.14
19208;BME280;9737;59.466;18.036;2023-07-02T09:00:10;100010.72;;;16.99;60.19
19208;BME280;9737;59.466;18.036;2023-07-02T09:02:38;99980.16;;;16.92;60.33
19208;BME280;9737;59.466;18.036;2023-07-02T09:05:07;99973.09;;;16.91;60.37
19208;BME280;9737;59.466;18.036;2023-07-02T09:07:43;99972.25;;;16.91;60.43
19208;BME280;9737;59.466;18.036;2023-07-02T09:10:11;99963.03;;;16.85;60.46
19208;BME280;9737;59.466;18.036;2023-07-02T09:12:39;99941.88;;;16.82;60.55
19208;BME280;9737;59.466;18.036;2023-07-02T09:15:07;99876.50;;;16.65;60.68
19208;BME280;9737;59.466;18.036;2023-07-02T09:17:36;99879.06;;;16.67;60.63
19208;BME280;9737;59.466;18.036;2023-07-02T09:20:07;99852.00;;;16.60;60.71
19208;BME280;9737;59.466;18.036;2023-07-02T09:22:36;99807.53;;;16.50;60.77
19208;BME280;9737;59.466;18.036;2023-07-02T09:25:06;99825.00;;;16.54;60.68
19208;BME280;9737;59.466;18.036;2023-07-02T09:27:35;99806.72;;;16.49;60.71
19208;BME280;9737;59.466;18.036;2023-07-02T09:30:08;99832.22;;;16.53;60.96
19208;BME280;9737;59.466;18.036;2023-07-02T09:32:36;99840.09;;;16.55;60.92
19208;BME280;9737;59.466;18.036;2023-07-02T09:35:06;99863.59;;;16.61;61.07
19208;BME280;9737;59.466;18.036;2023-07-02T09:37:34;99917.66;;;16.74;61.06
19208;BME280;9737;59.466;18.036;2023-07-02T09:40:02;99977.97;;;16.88;61.17
19208;BME280;9737;59.466;18.036;2023-07-02T09:42:35;100061.97;;;17.06;61.24
19208;BME280;9737;59.466;18.036;2023-07-02T09:45:03;100148.34;;;17.27;61.44
19208;BME280;9737;59.466;18.036;2023-07-02T09:47:40;100278.50;;;17.59;61.45
19208;BME280;9737;59.466;18.036;2023-07-02T09:50:13;100373.09;;;17.80;61.58
19208;BME280;9737;59.466;18.036;2023-07-02T09:52:44;100455.44;;;17.99;61.65
19208;BME280;9737;59.466;18.036;2023-07-02T09:55:14;100591.38;;;18.29;61.82
19208;BME280;9737;59.466;18.036;2023-07-02T09:57:43;100789.31;;;18.77;62.00
19208;BME280;9737;59.466;18.036;2023-07-02T10:00:13;100909.47;;;19.05;62.07
19208;BME280;9737;59.466;18.036;2023-07-02T10:02:47;101049.16;;;19.37;62.24
19208;BME280;9737;59.466;18.036;2023-07-02T10:05:26;101178.56;;;19.65;62.17
19208;BME280;9737;59.466;18.036;2023-07-02T10:07:55;101297.44;;;19.91;62.48
19208;BME280;9737;59.466;18.036;2023-07-02T10:10:28;101445.19;;;20.26;62.59
19208;BME280;9737;59.466;18.036;2023-07-02T10:12:56;101513.19;;;20.39;62.68
19208;BME280;9737;59.466;18.036;2023-07-02T10:15:25;101621.47;;;20.65;62.61
19208;BME280;9737;59.466;18.036;2023-07-02T10:17:55;101672.63;;;20.76;62.79
19208;BME280;9737;59.466;18.036;2023-07-02T10:20:35;101658.56;;;20.72;62.88
19208;BME280;9737;59.466;18.036;2023-07-02T10:23:04;101629.75;;;20.63;62.98
19208;BME280;9737;59.466;18.036;2023-07-02T10:25:33;101494.75;;;20.34;63.18
19208;BME280;9737;59.466;18.036;2023-07-02T10:28:13;101382.47;;;20.04;63.22
19208;BME280;9737;59.466;18.036;2023-07-02T10:30:42;101242.59;;;19.72;63.29
19208;BME280;9737;59.466;18.036;2023-07-02T10:33:11;101207.56;;;19.63;63.24
19208;BME280;9737;59.466;18.036;2023-07-02T10:35:41;101177.06;;;19.53;63.15
19208;BME280;9737;59.466;18.036;2023-07-02T10:38:13;101047.34;;;19.28;63.17
19208;BME280;9737;59.466;18.036;2023-07-02T10:40:42;100939.59;;;19.01;63.47
19208;BME280;9737;59.466;18.036;2023-07-02T10:43:10;100864.88;;;18.85;63.34
19208;BME280;9737;59.466;18.036;2023-07-02T10:45:38;100846.59;;;18.79;63.28
19208;BME280;9737;59.466;18.036;2023-07-02T10:48:09;100811.66;;;18.69;63.35
19208;BME280;9737;59.466;18.036;2023-07-02T10:50:36;100750.09;;;18.56;63.42
19208;BME280;9737;59.466;18.036;2023-07-02T10:53:06;100744.03;;;18.54;63.49
19208;BME280;9737;59.466;18.036;2023-07-02T10:55:34;100762.56;;;18.57;63.46
19208;BME280;9737;59.466;18.036;2023-07-02T10:58:03;100751.09;;;18.55;63.54
19208;BME280;9737;59.466;18.036;2023-07-02T11:00:31;100761.72;;;18.57;63.53
19208;BME280;9737;59.466;18.036;2023-07-02T11:02:59;100749.56;;;18.53;63.70
19208;BME280;9737;59.466;18.036;2023-07-02T11:05:28;100750.25;;;18.55;63.62
19208;BME280;9737;59.466;18.036;2023-07-02T11:08:09;100749.41;;;18.54;63.54
19208;BME280;9737;59.466;18.036;2023-07-02T11:10:37;100798.69;;;18.65;63.82
19208;BME280;9737;59.466;18.036;2023-07-02T11:13:12;100850.44;;;18.76;63.75
19208;BME280;9737;59.466;18.036;2023-07-02T11:15:41;100894.34;;;18.86;64.14
19208;BME280;9737;59.466;18.036;2023-07-02T11:18:09;100955.78;;;19.01;63.98
19208;BME280;9737;59.466;18.036;2023-07-02T11:20:38;100964.56;;;19.03;64.15
19208;BME280;9737;59.466;18.036;2023-07-02T11:23:18;100887.25;;;18.85;64.09
19208;BME280;9737;59.466;18.036;2023-07-02T11:26:03;100824.75;;;18.64;63.84
19208;BME280;9737;59.466;18.036;2023-07-02T11:28:32;100806.59;;;18.66;64.16
19208;BME280;9737;59.466;18.036;2023-07-02T11:31:03;100784.81;;;18.60;64.21
19208;BME280;9737;59.466;18.036;2023-07-02T11:33:35;100747.16;;;18.50;64.15
19208;BME280;9737;59.466;18.036;2023-07-02T11:36:04;100722.56;;;18.45;64.39
19208;BME280;9737;59.466;18.036;2023-07-02T11:38:36;100692.88;;;18.37;64.38
19208;BME280;9737;59.466;18.036;2023-07-02T11:41:04;100657.81;;;18.29;64.42
19208;BME280;9737;59.466;18.036;2023-07-02T11:43:32;100655.28;;;18.27;64.15
19208;BME280;9737;59.466;18.036;2023-07-02T11:46:00;100640.63;;;18.21;64.36
19208;BME280;9737;59.466;18.036;2023-07-02T11:48:28;100640.63;;;18.21;64.46
19208;BME280;9737;59.466;18.036;2023-07-02T11:50:56;100669.44;;;18.29;64.63
19208;BME280;9737;59.466;18.036;2023-07-02T11:53:24;100610.94;;;18.13;64.64
19208;BME280;9737;59.466;18.036;2023-07-02T11:55:53;100507.34;;;17.91;64.73
19208;BME280;9737;59.466;18.036;2023-07-02T11:58:21;100482.91;;;17.85;64.76
19208;BME280;9737;59.466;18.036;2023-07-02T12:00:49;100423.50;;;17.70;64.81
19208;BME280;9737;59.466;18.036;2023-07-02T12:03:16;100439.16;;;17.75;64.88
19208;BME280;9737;59.466;18.036;2023-07-02T12:05:44;100432.09;;;17.74;64.80
19208;BME280;9737;59.466;18.036;2023-07-02T12:08:13;100440.16;;;17.74;65.18
19208;BME280;9737;59.466;18.036;2023-07-02T12:10:41;100418.28;;;17.69;64.99
19208;BME280;9737;59.466;18.036;2023-07-02T12:13:10;100423.66;;;17.69;64.98
19208;BME280;9737;59.466;18.036;2023-07-02T12:15:38;100380.69;;;17.59;65.09
19208;BME280;9737;59.466;18.036;2023-07-02T12:18:06;100355.28;;;17.53;65.15
19208;BME280;9737;59.466;18.036;2023-07-02T12:20:34;100314.22;;;17.43;65.16
19208;BME280;9737;59.466;18.036;2023-07-02T12:23:02;100327.34;;;17.46;65.20
19208;BME280;9737;59.466;18.036;2023-07-02T12:25:30;100308.19;;;17.41;65.23
19208;BME280;9737;59.466;18.036;2023-07-02T12:27:58;100263.75;;;17.29;65.35
19208;BME280;9737;59.466;18.036;2023-07-02T12:30:27;100215.66;;;17.18;65.39
19208;BME280;9737;59.466;18.036;2023-07-02T12:32:55;100195.66;;;17.12;65.48
19208;BME280;9737;59.466;18.036;2023-07-02T12:35:23;100165.03;;;17.05;65.53
19208;BME280;9737;59.466;18.036;2023-07-02T12:37:52;100129.41;;;16.95;65.61
19208;BME280;9737;59.466;18.036;2023-07-02T12:40:20;100112.75;;;16.91;65.62
19208;BME280;9737;59.466;18.036;2023-07-02T12:42:48;100130.25;;;16.95;65.67
19208;BME280;9737;59.466;18.036;2023-07-02T12:45:17;100150.41;;;16.99;65.66
19208;BME280;9737;59.466;18.036;2023-07-02T12:47:48;100158.97;;;17.03;65.78
19208;BME280;9737;59.466;18.036;2023-07-02T12:50:16;100177.78;;;17.03;65.84
19208;BME280;9737;59.466;18.036;2023-07-02T12:52:45;100206.22;;;17.14;65.96
19208;BME280;9737;59.466;18.036;2023-07-02T12:55:13;100240.34;;;17.21;65.96
19208;BME280;9737;59.466;18.036;2023-07-02T12:57:41;100305.97;;;17.37;66.00
19208;BME280;9737;59.466;18.036;2023-07-02T13:00:10;100373.41;;;17.51;66.14
19208;BME280;9737;59.466;18.036;2023-07-02T13:02:38;100404.19;;;17.57;66.20